sensor_id;sensor_type;location;lat;lon;timestamp;P1;durP1;ratioP1;P2;durP2;ratioP2
17449;SDS011;8842;51.244;7.102;2023-07-30T00:01:52;14.40;;;13.60;;
17449;SDS011;8842;51.244;7.102;2023-07-30T00:07:04;14.57;;;13.77;;
17449;SDS011;8842;51.244;7.102;2023-07-30T00:12:09;14.43;;;13.63;;
17449;SDS011;8842;51.244;7.102;2023-07-30T00:22:23;14.60;;;13.80;;
17449;SDS011;8842;51.244;7.102;2023-07-30T00:27:27;14.00;;;13.30;;
17449;SDS011;8842;51.244;7.102;2023-07-30T00:32:39;14.43;;;13.63;;
17449;SDS011;8842;51.244;7.102;2023-07-30T00:37:45;14.10;;;13.37;;
17449;SDS011;8842;51.244;7.102;2023-07-30T00:48:00;14.40;;;13.60;;
17449;SDS011;8842;51.244;7.102;2023-07-30T00:58:15;13.50;;;12.80;;
17449;SDS011;8842;51.244;7.102;2023-07-30T01:03:21;13.70;;;13.00;;
17449;SDS011;8842;51.244;7.102;2023-07-30T01:08:36;13.67;;;12.97;;
17449;SDS011;8842;51.244;7.102;2023-07-30T01:13:41;13.57;;;12.87;;
17449;SDS011;8842;51.244;7.102;2023-07-30T01:18:56;14.00;;;13.30;;
17449;SDS011;8842;51.244;7.102;2023-07-30T01:24:01;13.80;;;13.10;;
17449;SDS011;8842;51.244;7.102;2023-07-30T01:29:08;13.67;;;12.97;;
17449;SDS011;8842;51.244;7.102;2023-07-30T01:34:23;13.60;;;12.90;;
17449;SDS011;8842;51.244;7.102;2023-07-30T01:39:29;13.60;;;12.90;;
17449;SDS011;8842;51.244;7.102;2023-07-30T01:44:35;12.83;;;12.13;;
17449;SDS011;8842;51.244;7.102;2023-07-30T01:49:49;13.47;;;12.67;;
17449;SDS011;8842;51.244;7.102;2023-07-30T01:54:53;13.40;;;12.70;;
17449;SDS011;8842;51.244;7.102;2023-07-30T02:00:06;13.57;;;12.87;;
17449;SDS011;8842;51.244;7.102;2023-07-30T02:10:43;13.20;;;12.50;;
17449;SDS011;8842;51.244;7.102;2023-07-30T02:15:49;13.40;;;12.70;;
17449;SDS011;8842;51.244;7.102;2023-07-30T02:20:53;13.40;;;12.70;;
17449;SDS011;8842;51.244;7.102;2023-07-30T02:25:57;13.50;;;12.80;;
17449;SDS011;8842;51.244;7.102;2023-07-30T02:31:01;13.20;;;12.50;;
17449;SDS011;8842;51.244;7.102;2023-07-30T02:36:13;13.03;;;12.33;;
17449;SDS011;8842;51.244;7.102;2023-07-30T02:46:28;13.47;;;12.77;;
17449;SDS011;8842;51.244;7.102;2023-07-30T02:51:32;13.47;;;12.77;;
17449;SDS011;8842;51.244;7.102;2023-07-30T02:56:44;13.70;;;13.00;;
17449;SDS011;8842;51.244;7.102;2023-07-30T03:01:48;13.30;;;12.60;;
17449;SDS011;8842;51.244;7.102;2023-07-30T03:06:52;13.33;;;12.63;;
17449;SDS011;8842;51.244;7.102;2023-07-30T03:11:56;13.40;;;12.70;;
17449;SDS011;8842;51.244;7.102;2023-07-30T03:17:08;14.00;;;13.23;;
17449;SDS011;8842;51.244;7.102;2023-07-30T03:22:12;13.70;;;13.00;;
17449;SDS011;8842;51.244;7.102;2023-07-30T03:27:23;13.47;;;12.77;;
17449;SDS011;8842;51.244;7.102;2023-07-30T03:32:27;13.43;;;12.73;;
17449;SDS011;8842;51.244;7.102;2023-07-30T03:37:32;13.27;;;12.57;;
17449;SDS011;8842;51.244;7.102;2023-07-30T03:42:43;13.47;;;12.77;;
17449;SDS011;8842;51.244;7.102;2023-07-30T03:47:55;13.57;;;12.87;;
17449;SDS011;8842;51.244;7.102;2023-07-30T03:52:59;13.33;;;12.63;;
17449;SDS011;8842;51.244;7.102;2023-07-30T03:58:11;13.60;;;12.90;;
17449;SDS011;8842;51.244;7.102;2023-07-30T04:03:15;13.90;;;13.20;;
17449;SDS011;8842;51.244;7.102;2023-07-30T04:08:26;13.83;;;13.13;;
17449;SDS011;8842;51.244;7.102;2023-07-30T04:13:31;13.80;;;13.10;;
17449;SDS011;8842;51.244;7.102;2023-07-30T04:18:42;14.30;;;13.50;;
17449;SDS011;8842;51.244;7.102;2023-07-30T04:23:46;13.80;;;13.10;;
17449;SDS011;8842;51.244;7.102;2023-07-30T04:29:01;13.90;;;13.20;;
17449;SDS011;8842;51.244;7.102;2023-07-30T04:34:05;13.80;;;13.10;;
17449;SDS011;8842;51.244;7.102;2023-07-30T04:39:16;13.90;;;13.20;;
17449;SDS011;8842;51.244;7.102;2023-07-30T04:44:20;14.10;;;13.40;;
17449;SDS011;8842;51.244;7.102;2023-07-30T04:49:24;13.90;;;13.20;;
17449;SDS011;8842;51.244;7.102;2023-07-30T04:54:39;13.70;;;13.00;;
17449;SDS011;8842;51.244;7.102;2023-07-30T04:59:43;13.60;;;12.90;;
17449;SDS011;8842;51.244;7.102;2023-07-30T05:04:55;13.63;;;12.93;;
17449;SDS011;8842;51.244;7.102;2023-07-30T05:09:59;13.47;;;12.77;;
17449;SDS011;8842;51.244;7.102;2023-07-30T05:15:10;13.73;;;13.03;;
17449;SDS011;8842;51.244;7.102;2023-07-30T05:20:15;13.97;;;13.27;;
17449;SDS011;8842;51.244;7.102;2023-07-30T05:25:19;13.50;;;12.80;;
17449;SDS011;8842;51.244;7.102;2023-07-30T05:30:33;13.37;;;12.67;;
17449;SDS011;8842;51.244;7.102;2023-07-30T05:35:37;14.00;;;13.30;;
17449;SDS011;8842;51.244;7.102;2023-07-30T05:40:49;13.80;;;13.10;;
17449;SDS011;8842;51.244;7.102;2023-07-30T05:45:53;13.90;;;13.20;;
17449;SDS011;8842;51.244;7.102;2023-07-30T05:50:57;14.60;;;13.80;;
17449;SDS011;8842;51.244;7.102;2023-07-30T05:56:01;14.30;;;13.50;;
17449;SDS011;8842;51.244;7.102;2023-07-30T06:01:05;13.50;;;12.80;;
17449;SDS011;8842;51.244;7.102;2023-07-30T06:06:17;13.53;;;12.83;;
17449;SDS011;8842;51.244;7.102;2023-07-30T06:11:22;13.30;;;12.60;;
17449;SDS011;8842;51.244;7.102;2023-07-30T06:16:26;13.60;;;12.90;;
17449;SDS011;8842;51.244;7.102;2023-07-30T06:21:31;13.70;;;13.00;;
17449;SDS011;8842;51.244;7.102;2023-07-30T06:26:43;13.60;;;12.90;;
17449;SDS011;8842;51.244;7.102;2023-07-30T06:31:47;13.47;;;12.77;;
17449;SDS011;8842;51.244;7.102;2023-07-30T06:36:58;13.90;;;13.20;;
17449;SDS011;8842;51.244;7.102;2023-07-30T06:42:03;13.93;;;13.23;;
17449;SDS011;8842;51.244;7.102;2023-07-30T06:47:08;13.70;;;13.00;;
17449;SDS011;8842;51.244;7.102;2023-07-30T06:52:12;14.43;;;13.73;;
17449;SDS011;8842;51.244;7.102;2023-07-30T06:57:16;13.80;;;13.10;;
17449;SDS011;8842;51.244;7.102;2023-07-30T07:02:20;13.90;;;13.20;;
17449;SDS011;8842;51.244;7.102;2023-07-30T07:07:24;14.00;;;13.30;;
17449;SDS011;8842;51.244;7.102;2023-07-30T07:12:38;13.90;;;13.20;;
17449;SDS011;8842;51.244;7.102;2023-07-30T07:17:43;13.97;;;13.27;;
17449;SDS011;8842;51.244;7.102;2023-07-30T07:22:55;13.63;;;12.93;;
17449;SDS011;8842;51.244;7.102;2023-07-30T07:33:10;14.20;;;13.50;;
17449;SDS011;8842;51.244;7.102;2023-07-30T07:38:15;13.77;;;13.07;;
17449;SDS011;8842;51.244;7.102;2023-07-30T07:43:19;14.33;;;13.57;;
17449;SDS011;8842;51.244;7.102;2023-07-30T07:48:23;13.90;;;13.20;;
17449;SDS011;8842;51.244;7.102;2023-07-30T07:53:27;12.50;;;11.90;;
17449;SDS011;8842;51.244;7.102;2023-07-30T07:58:31;12.60;;;12.00;;
17449;SDS011;8842;51.244;7.102;2023-07-30T08:03:36;12.67;;;12.07;;
17449;SDS011;8842;51.244;7.102;2023-07-30T08:08:47;12.70;;;12.10;;
17449;SDS011;8842;51.244;7.102;2023-07-30T08:19:02;13.40;;;12.70;;
17449;SDS011;8842;51.244;7.102;2023-07-30T08:24:06;13.60;;;12.90;;
17449;SDS011;8842;51.244;7.102;2023-07-30T08:29:10;13.23;;;12.53;;
17449;SDS011;8842;51.244;7.102;2023-07-30T08:34:16;13.40;;;12.70;;
17449;SDS011;8842;51.244;7.102;2023-07-30T08:39:31;13.20;;;12.50;;
17449;SDS011;8842;51.244;7.102;2023-07-30T08:44:35;12.50;;;11.90;;
17449;SDS011;8842;51.244;7.102;2023-07-30T08:49:47;12.10;;;11.50;;
17449;SDS011;8842;51.244;7.102;2023-07-30T08:54:51;12.13;;;11.53;;
17449;SDS011;8842;51.244;7.102;2023-07-30T08:59:58;11.60;;;11.00;;
17449;SDS011;8842;51.244;7.102;2023-07-30T09:05:05;11.90;;;11.30;;
17449;SDS011;8842;51.244;7.102;2023-07-30T09:10:10;11.53;;;10.93;;
17449;SDS011;8842;51.244;7.102;2023-07-30T09:15:14;11.40;;;10.80;;
17449;SDS011;8842;51.244;7.102;2023-07-30T09:20:19;11.10;;;10.50;;
17449;SDS011;8842;51.244;7.102;2023-07-30T09:25:23;9.90;;;9.40;;
17449;SDS011;8842;51.244;7.102;2023-07-30T09:30:27;9.90;;;9.40;;
17449;SDS011;8842;51.244;7.102;2023-07-30T09:35:41;8.28;;;7.87;;
17449;SDS011;8842;51.244;7.102;2023-07-30T09:40:47;9.40;;;8.90;;
17449;SDS011;8842;51.244;7.102;2023-07-30T09:51:03;8.83;;;8.43;;
17449;SDS011;8842;51.244;7.102;2023-07-30T09:56:08;8.63;;;8.23;;
17449;SDS011;8842;51.244;7.102;2023-07-30T10:01:12;9.53;;;9.03;;
17449;SDS011;8842;51.244;7.102;2023-07-30T10:06:16;11.03;;;10.43;;
17449;SDS011;8842;51.244;7.102;2023-07-30T10:11:29;9.53;;;9.03;;
17449;SDS011;8842;51.244;7.102;2023-07-30T10:16:33;8.65;;;8.25;;
17449;SDS011;8842;51.244;7.102;2023-07-30T10:21:45;8.65;;;8.25;;
17449;SDS011;8842;51.244;7.102;2023-07-30T10:26:49;8.93;;;8.50;;
17449;SDS011;8842;51.244;7.102;2023-07-30T10:32:01;8.60;;;8.20;;
17449;SDS011;8842;51.244;7.102;2023-07-30T10:37:05;9.70;;;9.20;;
17449;SDS011;8842;51.244;7.102;2023-07-30T10:42:11;8.80;;;8.30;;
17449;SDS011;8842;51.244;7.102;2023-07-30T10:47:17;9.88;;;9.38;;
17449;SDS011;8842;51.244;7.102;2023-07-30T10:52:26;9.95;;;9.45;;
17449;SDS011;8842;51.244;7.102;2023-07-30T10:57:39;10.90;;;10.30;;
17449;SDS011;8842;51.244;7.102;2023-07-30T11:02:52;9.90;;;9.40;;
17449;SDS011;8842;51.244;7.102;2023-07-30T11:07:57;9.25;;;8.75;;
17449;SDS011;8842;51.244;7.102;2023-07-30T11:13:01;8.85;;;8.45;;
17449;SDS011;8842;51.244;7.102;2023-07-30T11:18:12;8.20;;;7.80;;
17449;SDS011;8842;51.244;7.102;2023-07-30T11:23:18;8.53;;;8.13;;
17449;SDS011;8842;51.244;7.102;2023-07-30T11:28:29;8.33;;;7.92;;
17449;SDS011;8842;51.244;7.102;2023-07-30T11:33:34;8.40;;;8.00;;
17449;SDS011;8842;51.244;7.102;2023-07-30T11:38:49;9.50;;;9.00;;
17449;SDS011;8842;51.244;7.102;2023-07-30T11:43:55;8.63;;;8.20;;
17449;SDS011;8842;51.244;7.102;2023-07-30T11:49:10;8.80;;;8.40;;
17449;SDS011;8842;51.244;7.102;2023-07-30T11:54:25;8.68;;;8.18;;
17449;SDS011;8842;51.244;7.102;2023-07-30T11:59:30;8.60;;;8.20;;
17449;SDS011;8842;51.244;7.102;2023-07-30T12:04:43;8.30;;;7.90;;
17449;SDS011;8842;51.244;7.102;2023-07-30T12:09:47;9.60;;;9.10;;
17449;SDS011;8842;51.244;7.102;2023-07-30T12:14:53;9.98;;;9.48;;
17449;SDS011;8842;51.244;7.102;2023-07-30T12:20:00;9.78;;;9.28;;
17449;SDS011;8842;51.244;7.102;2023-07-30T12:25:07;9.58;;;9.08;;
17449;SDS011;8842;51.244;7.102;2023-07-30T12:30:19;9.58;;;9.08;;
17449;SDS011;8842;51.244;7.102;2023-07-30T12:40:34;13.48;;;9.55;;
17449;SDS011;8842;51.244;7.102;2023-07-30T12:45:38;10.40;;;9.90;;
17449;SDS011;8842;51.244;7.102;2023-07-30T12:50:50;9.50;;;9.00;;
17449;SDS011;8842;51.244;7.102;2023-07-30T13:01:07;9.30;;;8.80;;
17449;SDS011;8842;51.244;7.102;2023-07-30T13:06:11;9.80;;;9.30;;
17449;SDS011;8842;51.244;7.102;2023-07-30T13:11:23;9.95;;;9.45;;
17449;SDS011;8842;51.244;7.102;2023-07-30T13:16:27;11.10;;;10.50;;
17449;SDS011;8842;51.244;7.102;2023-07-30T13:21:39;10.90;;;10.30;;
17449;SDS011;8842;51.244;7.102;2023-07-30T13:26:43;9.35;;;8.85;;
17449;SDS011;8842;51.244;7.102;2023-07-30T13:31:47;9.80;;;9.30;;
17449;SDS011;8842;51.244;7.102;2023-07-30T13:36:51;9.93;;;9.43;;
17449;SDS011;8842;51.244;7.102;2023-07-30T13:41:55;10.15;;;9.65;;
17449;SDS011;8842;51.244;7.102;2023-07-30T13:47:07;9.80;;;9.30;;
17449;SDS011;8842;51.244;7.102;2023-07-30T13:52:11;9.47;;;8.97;;
17449;SDS011;8842;51.244;7.102;2023-07-30T13:57:22;10.00;;;9.50;;
17449;SDS011;8842;51.244;7.102;2023-07-30T14:02:26;10.30;;;9.80;;
17449;SDS011;8842;51.244;7.102;2023-07-30T14:07:30;10.10;;;9.60;;
17449;SDS011;8842;51.244;7.102;2023-07-30T14:12:35;10.20;;;9.70;;
17449;SDS011;8842;51.244;7.102;2023-07-30T14:17:46;9.90;;;9.40;;
17449;SDS011;8842;51.244;7.102;2023-07-30T14:22:50;9.98;;;9.48;;
17449;SDS011;8842;51.244;7.102;2023-07-30T14:27:56;9.60;;;9.10;;
17449;SDS011;8842;51.244;7.102;2023-07-30T14:33:00;9.75;;;9.25;;
17449;SDS011;8842;51.244;7.102;2023-07-30T14:38:04;9.50;;;9.00;;
17449;SDS011;8842;51.244;7.102;2023-07-30T14:43:08;10.40;;;9.80;;
17449;SDS011;8842;51.244;7.102;2023-07-30T14:48:13;10.20;;;9.70;;
17449;SDS011;8842;51.244;7.102;2023-07-30T14:53:24;10.40;;;9.90;;
17449;SDS011;8842;51.244;7.102;2023-07-30T14:58:28;10.40;;;9.90;;
17449;SDS011;8842;51.244;7.102;2023-07-30T15:03:33;9.60;;;9.10;;
17449;SDS011;8842;51.244;7.102;2023-07-30T15:08:37;10.10;;;9.60;;
17449;SDS011;8842;51.244;7.102;2023-07-30T15:13:41;10.20;;;9.70;;
17449;SDS011;8842;51.244;7.102;2023-07-30T15:18:45;9.80;;;9.30;;
17449;SDS011;8842;51.244;7.102;2023-07-30T15:23:49;9.60;;;9.10;;
17449;SDS011;8842;51.244;7.102;2023-07-30T15:28:54;9.63;;;9.13;;
17449;SDS011;8842;51.244;7.102;2023-07-30T15:33:58;9.50;;;9.00;;
17449;SDS011;8842;51.244;7.102;2023-07-30T15:39:05;9.33;;;8.83;;
17449;SDS011;8842;51.244;7.102;2023-07-30T15:44:09;9.80;;;9.30;;
17449;SDS011;8842;51.244;7.102;2023-07-30T15:49:13;9.80;;;9.30;;
17449;SDS011;8842;51.244;7.102;2023-07-30T15:54:17;9.53;;;9.03;;
17449;SDS011;8842;51.244;7.102;2023-07-30T15:59:23;9.73;;;9.23;;
17449;SDS011;8842;51.244;7.102;2023-07-30T16:04:28;10.18;;;9.68;;
17449;SDS011;8842;51.244;7.102;2023-07-30T16:09:40;10.82;;;10.23;;
17449;SDS011;8842;51.244;7.102;2023-07-30T16:14:44;10.32;;;9.83;;
17449;SDS011;8842;51.244;7.102;2023-07-30T16:19:48;11.95;;;11.05;;
17449;SDS011;8842;51.244;7.102;2023-07-30T16:24:52;10.55;;;9.95;;
17449;SDS011;8842;51.244;7.102;2023-07-30T16:29:56;10.28;;;9.78;;
17449;SDS011;8842;51.244;7.102;2023-07-30T16:35:00;10.83;;;10.23;;
17449;SDS011;8842;51.244;7.102;2023-07-30T16:40:05;11.00;;;10.40;;
17449;SDS011;8842;51.244;7.102;2023-07-30T16:45:11;10.93;;;10.32;;
17449;SDS011;8842;51.244;7.102;2023-07-30T16:50:16;10.53;;;10.03;;
17449;SDS011;8842;51.244;7.102;2023-07-30T16:55:20;10.97;;;10.37;;
17449;SDS011;8842;51.244;7.102;2023-07-30T17:00:32;10.93;;;10.32;;
17449;SDS011;8842;51.244;7.102;2023-07-30T17:05:36;11.40;;;10.80;;
17449;SDS011;8842;51.244;7.102;2023-07-30T17:10:40;11.50;;;10.70;;
17449;SDS011;8842;51.244;7.102;2023-07-30T17:15:45;10.90;;;10.30;;
17449;SDS011;8842;51.244;7.102;2023-07-30T17:20:57;11.10;;;10.50;;
17449;SDS011;8842;51.244;7.102;2023-07-30T17:26:01;11.28;;;10.68;;
17449;SDS011;8842;51.244;7.102;2023-07-30T17:31:05;11.33;;;10.72;;
17449;SDS011;8842;51.244;7.102;2023-07-30T17:36:13;11.70;;;11.10;;
17449;SDS011;8842;51.244;7.102;2023-07-30T17:41:17;11.70;;;11.10;;
17449;SDS011;8842;51.244;7.102;2023-07-30T17:46:21;11.83;;;11.22;;
17449;SDS011;8842;51.244;7.102;2023-07-30T17:51:25;11.85;;;11.25;;
17449;SDS011;8842;51.244;7.102;2023-07-30T17:56:29;11.30;;;10.70;;
17449;SDS011;8842;51.244;7.102;2023-07-30T18:01:34;12.58;;;11.90;;
17449;SDS011;8842;51.244;7.102;2023-07-30T18:06:38;11.90;;;11.30;;
17449;SDS011;8842;51.244;7.102;2023-07-30T18:11:43;12.37;;;11.67;;
17449;SDS011;8842;51.244;7.102;2023-07-30T18:16:47;12.20;;;11.60;;
17449;SDS011;8842;51.244;7.102;2023-07-30T18:21:51;12.27;;;11.63;;
17449;SDS011;8842;51.244;7.102;2023-07-30T18:26:56;12.30;;;11.70;;
17449;SDS011;8842;51.244;7.102;2023-07-30T18:32:07;12.23;;;11.63;;
17449;SDS011;8842;51.244;7.102;2023-07-30T18:37:11;11.87;;;11.27;;
17449;SDS011;8842;51.244;7.102;2023-07-30T18:42:15;11.67;;;11.07;;
17449;SDS011;8842;51.244;7.102;2023-07-30T18:47:19;12.90;;;12.00;;
17449;SDS011;8842;51.244;7.102;2023-07-30T18:52:23;12.63;;;11.93;;
17449;SDS011;8842;51.244;7.102;2023-07-30T18:57:27;12.43;;;11.83;;
17449;SDS011;8842;51.244;7.102;2023-07-30T19:02:31;12.70;;;12.00;;
17449;SDS011;8842;51.244;7.102;2023-07-30T19:07:35;12.93;;;12.23;;
17449;SDS011;8842;51.244;7.102;2023-07-30T19:12:40;13.10;;;12.40;;
17449;SDS011;8842;51.244;7.102;2023-07-30T19:17:44;13.13;;;12.43;;
17449;SDS011;8842;51.244;7.102;2023-07-30T19:22:48;13.47;;;12.77;;
17449;SDS011;8842;51.244;7.102;2023-07-30T19:27:52;14.30;;;13.50;;
17449;SDS011;8842;51.244;7.102;2023-07-30T19:32:56;14.20;;;13.30;;
17449;SDS011;8842;51.244;7.102;2023-07-30T19:38:01;14.20;;;13.50;;
17449;SDS011;8842;51.244;7.102;2023-07-30T19:43:07;14.07;;;13.37;;
17449;SDS011;8842;51.244;7.102;2023-07-30T19:48:11;14.60;;;13.80;;
17449;SDS011;8842;51.244;7.102;2023-07-30T19:53:15;14.10;;;13.40;;
17449;SDS011;8842;51.244;7.102;2023-07-30T19:58:24;14.70;;;13.90;;
17449;SDS011;8842;51.244;7.102;2023-07-30T20:03:29;15.20;;;14.40;;
17449;SDS011;8842;51.244;7.102;2023-07-30T20:08:44;15.70;;;14.90;;
17449;SDS011;8842;51.244;7.102;2023-07-30T20:13:48;15.90;;;15.00;;
17449;SDS011;8842;51.244;7.102;2023-07-30T20:19:00;16.40;;;15.50;;
17449;SDS011;8842;51.244;7.102;2023-07-30T20:24:04;16.47;;;15.57;;
17449;SDS011;8842;51.244;7.102;2023-07-30T20:29:08;16.17;;;15.27;;
17449;SDS011;8842;51.244;7.102;2023-07-30T20:34:13;16.40;;;15.50;;
17449;SDS011;8842;51.244;7.102;2023-07-30T20:39:17;16.53;;;15.63;;
17449;SDS011;8842;51.244;7.102;2023-07-30T20:44:22;16.37;;;15.47;;
17449;SDS011;8842;51.244;7.102;2023-07-30T20:49:26;16.40;;;15.50;;
17449;SDS011;8842;51.244;7.102;2023-07-30T20:54:37;16.40;;;15.50;;
17449;SDS011;8842;51.244;7.102;2023-07-30T20:59:42;16.20;;;15.30;;
17449;SDS011;8842;51.244;7.102;2023-07-30T21:04:53;16.13;;;15.23;;
17449;SDS011;8842;51.244;7.102;2023-07-30T21:09:57;16.17;;;15.27;;
17449;SDS011;8842;51.244;7.102;2023-07-30T21:15:01;16.20;;;15.30;;
17449;SDS011;8842;51.244;7.102;2023-07-30T21:20:13;16.20;;;15.30;;
17449;SDS011;8842;51.244;7.102;2023-07-30T21:25:18;16.50;;;15.60;;
17449;SDS011;8842;51.244;7.102;2023-07-30T21:30:22;16.00;;;15.10;;
17449;SDS011;8842;51.244;7.102;2023-07-30T21:35:27;16.10;;;15.20;;
17449;SDS011;8842;51.244;7.102;2023-07-30T21:40:31;16.30;;;15.40;;
17449;SDS011;8842;51.244;7.102;2023-07-30T21:45:35;16.50;;;15.60;;
17449;SDS011;8842;51.244;7.102;2023-07-30T21:50:49;16.33;;;15.43;;
17449;SDS011;8842;51.244;7.102;2023-07-30T21:56:07;16.40;;;15.50;;
17449;SDS011;8842;51.244;7.102;2023-07-30T22:01:12;16.47;;;15.57;;
17449;SDS011;8842;51.244;7.102;2023-07-30T22:06:16;16.03;;;15.13;;
17449;SDS011;8842;51.244;7.102;2023-07-30T22:11:20;15.93;;;15.03;;
17449;SDS011;8842;51.244;7.102;2023-07-30T22:16:31;15.97;;;15.07;;
17449;SDS011;8842;51.244;7.102;2023-07-30T22:21:36;15.97;;;15.07;;
17449;SDS011;8842;51.244;7.102;2023-07-30T22:26:40;15.77;;;14.87;;
17449;SDS011;8842;51.244;7.102;2023-07-30T22:31:51;15.93;;;15.03;;
17449;SDS011;8842;51.244;7.102;2023-07-30T22:36:55;15.70;;;14.90;;
17449;SDS011;8842;51.244;7.102;2023-07-30T22:42:07;15.60;;;14.80;;
17449;SDS011;8842;51.244;7.102;2023-07-30T22:47:11;15.90;;;15.00;;
17449;SDS011;8842;51.244;7.102;2023-07-30T22:52:23;15.80;;;14.90;;
17449;SDS011;8842;51.244;7.102;2023-07-30T22:57:27;15.70;;;14.80;;
17449;SDS011;8842;51.244;7.102;2023-07-30T23:02:39;16.00;;;15.10;;
17449;SDS011;8842;51.244;7.102;2023-07-30T23:07:43;15.80;;;14.90;;
17449;SDS011;8842;51.244;7.102;2023-07-30T23:12:57;15.87;;;14.97;;
17449;SDS011;8842;51.244;7.102;2023-07-30T23:18:01;15.53;;;14.73;;
17449;SDS011;8842;51.244;7.102;2023-07-30T23:23:13;15.77;;;14.87;;
17449;SDS011;8842;51.244;7.102;2023-07-30T23:28:17;16.00;;;15.10;;
17449;SDS011;8842;51.244;7.102;2023-07-30T23:33:21;15.77;;;14.87;;
17449;SDS011;8842;51.244;7.102;2023-07-30T23:38:25;15.53;;;14.73;;
17449;SDS011;8842;51.244;7.102;2023-07-30T23:43:30;15.50;;;14.70;;
17449;SDS011;8842;51.244;7.102;2023-07-30T23:48:45;15.50;;;14.70;;
17449;SDS011;8842;51.244;7.102;2023-07-30T23:53:49;15.50;;;14.70;;
17449;SDS011;8842;51.244;7.102;2023-07-30T23:58:53;15.50;;;14.70;;
